createdAt,value
2019-01-26T00:00:01.511Z,40.73
2019-01-26T00:02:31.406Z,56.27
2019-01-26T00:05:01.323Z,39.60
2019-01-26T00:07:31.319Z,46.67
2019-01-26T00:10:01.280Z,41.20
2019-01-26T00:12:31.251Z,47.30
2019-01-26T00:15:01.206Z,42.33
2019-01-26T00:17:31.155Z,43.77
2019-01-26T00:20:01.026Z,37.50
2019-01-26T00:22:30.985Z,46.17
2019-01-26T00:25:00.967Z,46.33
2019-01-26T00:27:31.347Z,41.77
2019-01-26T00:30:01.313Z,42.67
2019-01-26T00:32:31.232Z,40.23
2019-01-26T00:35:01.125Z,40.77
2019-01-26T00:37:31.148Z,39.43
2019-01-26T00:40:01.024Z,35.50
2019-01-26T00:42:30.906Z,38.23
2019-01-26T00:45:00.788Z,35.30
2019-01-26T00:47:30.712Z,33.73
2019-01-26T00:50:00.591Z,33.90
2019-01-26T00:52:30.485Z,38.50
2019-01-26T00:55:00.742Z,35.60
2019-01-26T00:57:30.593Z,38.80
2019-01-26T01:00:00.627Z,31.97
2019-01-26T01:02:30.526Z,34.57
2019-01-26T01:05:00.396Z,33.70
2019-01-26T01:07:30.576Z,28.23
2019-01-26T01:10:00.493Z,23.57
2019-01-26T01:12:30.760Z,26.73
2019-01-26T01:15:00.692Z,28.30
2019-01-26T01:17:30.647Z,26.70
2019-01-26T01:20:00.571Z,25.27
2019-01-26T01:22:30.567Z,27.53
2019-01-26T01:25:00.372Z,28.20
2019-01-26T01:27:30.265Z,25.20
2019-01-26T01:30:00.190Z,27.33
2019-01-26T01:32:30.114Z,26.73
2019-01-26T01:34:59.972Z,23.10
2019-01-26T01:37:29.860Z,22.03
2019-01-26T01:39:59.781Z,21.57
2019-01-26T01:42:29.673Z,21.80
2019-01-26T01:44:59.563Z,18.70
2019-01-26T01:47:29.421Z,17.90
2019-01-26T01:49:59.339Z,17.60
2019-01-26T01:52:29.265Z,19.47
2019-01-26T01:54:59.091Z,15.80
2019-01-26T01:57:28.961Z,19.73
2019-01-26T01:59:58.821Z,18.27
2019-01-26T02:02:29.199Z,16.03
2019-01-26T02:04:59.057Z,18.20
2019-01-26T02:07:29.070Z,15.60
2019-01-26T02:09:58.996Z,15.37
2019-01-26T02:12:28.882Z,16.50
2019-01-26T02:14:58.730Z,14.97
2019-01-26T02:17:28.614Z,18.07
2019-01-26T02:19:58.547Z,17.03
2019-01-26T02:22:28.499Z,15.90
2019-01-26T02:24:58.356Z,12.10
2019-01-26T02:27:28.255Z,15.53
2019-01-26T02:29:58.188Z,12.50
2019-01-26T02:32:28.318Z,13.73
2019-01-26T02:34:58.236Z,12.37
2019-01-26T02:37:28.265Z,19.37
2019-01-26T02:39:58.285Z,12.40
2019-01-26T02:42:28.249Z,10.50
2019-01-26T02:44:58.162Z,13.13
2019-01-26T02:47:28.232Z,11.90
2019-01-26T02:49:58.168Z,22.57
2019-01-26T02:52:28.165Z,15.40
2019-01-26T02:54:58.020Z,16.00
2019-01-26T02:57:27.959Z,21.63
2019-01-26T02:59:57.907Z,19.60
2019-01-26T03:02:27.921Z,20.47
2019-01-26T03:04:57.870Z,18.53
2019-01-26T03:07:27.771Z,20.47
2019-01-26T03:09:57.700Z,18.73
2019-01-26T03:12:27.583Z,18.73
2019-01-26T03:14:57.476Z,26.53
2019-01-26T03:17:27.766Z,25.90
2019-01-26T03:19:57.620Z,22.83
2019-01-26T03:22:30.362Z,21.70
2019-01-26T03:25:00.284Z,27.67
2019-01-26T03:27:30.208Z,27.90
2019-01-26T03:30:00.234Z,17.70
2019-01-26T03:32:30.675Z,21.17
2019-01-26T03:35:00.597Z,19.20
2019-01-26T03:37:30.424Z,17.63
2019-01-26T03:40:00.301Z,23.10
2019-01-26T03:42:30.217Z,18.93
2019-01-26T03:45:00.240Z,25.03
2019-01-26T03:47:30.266Z,19.90
2019-01-26T03:50:00.201Z,20.57
2019-01-26T03:52:30.011Z,19.50
2019-01-26T03:54:59.874Z,19.27
2019-01-26T03:57:29.735Z,22.60
2019-01-26T03:59:59.683Z,21.27
2019-01-26T04:02:29.531Z,23.60
2019-01-26T04:04:59.446Z,25.80
2019-01-26T04:07:29.382Z,23.77
2019-01-26T04:09:59.393Z,27.13
2019-01-26T04:12:29.279Z,26.87
2019-01-26T04:14:59.153Z,22.40
2019-01-26T04:17:29.203Z,29.50
2019-01-26T04:19:59.072Z,26.53
2019-01-26T04:22:28.998Z,27.27
2019-01-26T04:24:58.966Z,28.40
2019-01-26T04:27:28.808Z,24.07
2019-01-26T04:29:58.766Z,28.73
2019-01-26T04:32:28.688Z,23.90
2019-01-26T04:34:58.569Z,19.47
2019-01-26T04:37:28.405Z,23.53
2019-01-26T04:39:58.353Z,27.53
2019-01-26T04:42:28.275Z,29.37
2019-01-26T04:44:58.151Z,28.97
2019-01-26T04:47:31.122Z,22.33
2019-01-26T04:49:59.770Z,24.30
2019-01-26T04:52:29.736Z,21.43
2019-01-26T04:55:00.753Z,20.47
2019-01-26T04:57:30.727Z,20.37
2019-01-26T05:00:00.613Z,18.17
2019-01-26T05:02:30.613Z,19.13
2019-01-26T05:05:00.626Z,17.63
2019-01-26T05:07:30.509Z,20.80
2019-01-26T05:10:00.471Z,22.13
2019-01-26T05:12:30.345Z,22.33
2019-01-26T05:15:00.306Z,19.27
2019-01-26T05:17:30.243Z,24.37
2019-01-26T05:20:00.211Z,20.03
2019-01-26T05:22:30.080Z,24.53
2019-01-26T05:24:59.982Z,21.23
2019-01-26T05:27:29.860Z,18.40
2019-01-26T05:29:59.824Z,11.13
2019-01-26T05:32:29.799Z,8.10
2019-01-26T05:34:59.678Z,18.60
2019-01-26T05:37:29.532Z,17.20
2019-01-26T05:39:59.468Z,16.17
2019-01-26T05:42:29.321Z,20.10
2019-01-26T05:44:59.222Z,20.30
2019-01-26T05:47:29.689Z,18.00
2019-01-26T05:49:59.594Z,22.50
2019-01-26T05:52:29.492Z,23.87
2019-01-26T05:54:59.533Z,19.93
2019-01-26T05:57:29.419Z,20.77
2019-01-26T05:59:59.389Z,20.57
2019-01-26T06:02:29.283Z,24.03
2019-01-26T06:04:59.170Z,18.03
2019-01-26T06:07:29.142Z,18.67
2019-01-26T06:09:59.063Z,13.97
2019-01-26T06:12:29.104Z,16.47
2019-01-26T06:14:58.982Z,14.30
2019-01-26T06:17:28.918Z,15.47
2019-01-26T06:19:58.802Z,21.07
2019-01-26T06:22:28.661Z,21.80
2019-01-26T06:24:59.321Z,22.10
2019-01-26T06:27:29.265Z,16.27
2019-01-26T06:29:59.121Z,18.23
2019-01-26T06:32:29.314Z,20.40
2019-01-26T06:34:59.218Z,26.67
2019-01-26T06:37:29.107Z,22.40
2019-01-26T06:39:58.997Z,33.50
2019-01-26T06:42:28.856Z,22.83
2019-01-26T06:44:58.722Z,24.23
2019-01-26T06:47:29.005Z,21.53
2019-01-26T06:49:58.952Z,14.27
2019-01-26T06:52:28.940Z,10.37
2019-01-26T06:54:58.936Z,13.30
2019-01-26T06:57:28.904Z,9.20
2019-01-26T06:59:58.758Z,9.70
2019-01-26T07:02:28.675Z,9.67
2019-01-26T07:05:16.337Z,11.40
2019-01-26T07:07:46.337Z,10.77
2019-01-26T07:10:16.207Z,11.90
2019-01-26T07:12:46.213Z,9.17
2019-01-26T07:15:17.371Z,12.67
2019-01-26T07:17:47.767Z,11.73
2019-01-26T07:20:18.013Z,10.93
2019-01-26T07:22:48.351Z,13.20
2019-01-26T07:25:18.923Z,11.43
2019-01-26T07:27:48.856Z,8.97
2019-01-26T07:30:20.305Z,10.00
2019-01-26T07:32:50.210Z,21.47
2019-01-26T07:35:20.165Z,13.03
2019-01-26T07:37:50.102Z,14.90
2019-01-26T07:40:20.276Z,10.60
2019-01-26T07:42:50.242Z,10.60
2019-01-26T07:45:20.093Z,10.63
2019-01-26T07:47:49.961Z,10.10
2019-01-26T07:50:20.416Z,11.50
2019-01-26T07:52:50.391Z,12.40
2019-01-26T07:55:20.334Z,13.43
2019-01-26T07:57:50.228Z,12.80
2019-01-26T08:00:22.432Z,10.90
2019-01-26T08:02:52.310Z,12.30
2019-01-26T08:05:22.139Z,12.60
2019-01-26T08:07:52.132Z,12.80
2019-01-26T08:10:23.213Z,11.40
2019-01-26T08:12:53.672Z,12.30
2019-01-26T08:15:26.266Z,13.87
2019-01-26T08:17:56.146Z,25.10
2019-01-26T08:20:26.015Z,19.67
2019-01-26T08:22:55.890Z,17.63
2019-01-26T08:25:25.812Z,14.87
2019-01-26T08:27:56.247Z,18.90
2019-01-26T08:30:26.137Z,15.83
2019-01-26T08:32:56.067Z,17.63
2019-01-26T08:35:26.031Z,20.70
2019-01-26T08:37:55.872Z,20.53
2019-01-26T08:40:25.846Z,19.87
2019-01-26T08:42:55.868Z,22.10
2019-01-26T08:45:25.780Z,24.33
2019-01-26T08:47:55.704Z,20.03
2019-01-26T08:50:26.268Z,17.63
2019-01-26T08:52:56.247Z,26.20
2019-01-26T08:55:26.258Z,23.43
2019-01-26T08:57:56.123Z,22.80
2019-01-26T09:00:27.785Z,16.83
2019-01-26T09:03:16.660Z,21.70
2019-01-26T09:06:14.509Z,21.77
2019-01-26T09:08:44.064Z,18.50
2019-01-26T09:11:13.964Z,19.50
2019-01-26T09:13:43.799Z,11.70
2019-01-26T09:16:13.794Z,13.37
2019-01-26T09:18:43.666Z,14.30
2019-01-26T09:21:13.536Z,12.00
2019-01-26T09:23:43.383Z,14.40
2019-01-26T09:26:13.248Z,12.47
2019-01-26T09:28:43.221Z,11.70
2019-01-26T09:31:13.076Z,10.70
2019-01-26T09:33:42.935Z,10.30
2019-01-26T09:36:12.834Z,15.07
2019-01-26T09:38:42.763Z,11.20
2019-01-26T09:41:13.598Z,10.23
2019-01-26T09:43:43.678Z,10.97
2019-01-26T09:46:13.812Z,10.70
2019-01-26T09:48:46.392Z,11.27
2019-01-26T09:51:15.417Z,10.43
2019-01-26T09:53:46.248Z,9.07
2019-01-26T09:56:16.212Z,9.63
2019-01-26T09:58:46.048Z,13.30
2019-01-26T10:01:15.996Z,11.63
2019-01-26T10:03:47.043Z,11.97
2019-01-26T10:06:18.893Z,9.17
2019-01-26T10:08:49.734Z,8.53
2019-01-26T10:11:19.689Z,10.20
2019-01-26T10:13:49.616Z,9.60
2019-01-26T10:16:20.138Z,9.30
2019-01-26T10:18:53.632Z,9.00
2019-01-26T10:21:22.100Z,8.30
2019-01-26T10:23:52.033Z,8.50
2019-01-26T10:26:22.063Z,7.17
2019-01-26T10:28:52.048Z,8.93
2019-01-26T10:31:22.167Z,8.97
2019-01-26T10:33:52.111Z,8.33
2019-01-26T10:36:30.252Z,7.23
2019-01-26T10:39:09.094Z,8.33
2019-01-26T10:42:01.191Z,7.60
2019-01-26T10:44:33.496Z,6.17
2019-01-26T10:47:03.619Z,6.90
2019-01-26T10:49:33.469Z,6.67
2019-01-26T10:52:03.644Z,9.80
2019-01-26T10:54:33.628Z,6.67
2019-01-26T10:57:03.878Z,8.20
2019-01-26T10:59:33.772Z,8.83
2019-01-26T11:02:03.650Z,6.77
2019-01-26T11:04:35.438Z,7.40
2019-01-26T11:07:05.454Z,6.87
2019-01-26T11:09:35.414Z,5.87
2019-01-26T11:12:05.348Z,6.40
2019-01-26T11:14:35.284Z,6.03
2019-01-26T11:17:05.232Z,5.53
2019-01-26T11:19:35.174Z,6.10
2019-01-26T11:22:05.071Z,6.50
2019-01-26T11:24:35.043Z,6.07
2019-01-26T11:27:04.978Z,7.83
2019-01-26T11:29:34.974Z,6.90
2019-01-26T11:32:06.929Z,6.27
2019-01-26T11:34:36.799Z,5.00
2019-01-26T11:37:06.751Z,6.97
2019-01-26T11:39:36.698Z,6.20
2019-01-26T11:42:06.807Z,6.83
2019-01-26T11:44:37.872Z,7.77
2019-01-26T11:47:11.634Z,7.80
2019-01-26T11:49:47.783Z,6.70
2019-01-26T11:52:17.661Z,6.63
2019-01-26T11:55:05.232Z,6.10
2019-01-26T11:57:37.502Z,6.20
2019-01-26T12:00:46.321Z,7.53
2019-01-26T12:03:33.935Z,6.60
2019-01-26T12:06:10.531Z,5.90
2019-01-26T12:08:40.449Z,6.20
2019-01-26T12:11:10.499Z,7.37
2019-01-26T12:13:40.376Z,6.70
2019-01-26T12:16:10.371Z,7.30
2019-01-26T12:18:40.291Z,7.50
2019-01-26T12:21:10.248Z,8.20
2019-01-26T12:23:40.211Z,7.13
2019-01-26T12:26:10.055Z,6.73
2019-01-26T12:28:39.898Z,7.07
2019-01-26T12:31:09.773Z,6.33
2019-01-26T12:33:39.659Z,6.57
2019-01-26T12:36:10.959Z,7.90
2019-01-26T12:38:40.807Z,7.30
2019-01-26T12:41:10.644Z,9.50
2019-01-26T12:43:40.668Z,8.37
2019-01-26T12:46:10.500Z,7.80
2019-01-26T12:48:40.369Z,7.10
2019-01-26T12:51:10.290Z,7.43
2019-01-26T12:53:40.232Z,7.80
2019-01-26T12:56:10.158Z,9.93
2019-01-26T12:58:40.092Z,5.93
2019-01-26T13:01:10.404Z,6.40
2019-01-26T13:03:40.331Z,6.43
2019-01-26T13:06:10.202Z,5.87
2019-01-26T13:08:40.248Z,5.80
2019-01-26T13:11:18.919Z,5.90
2019-01-26T13:13:48.879Z,6.70
2019-01-26T13:16:20.737Z,6.53
2019-01-26T13:18:50.620Z,8.03
2019-01-26T13:21:20.559Z,6.90
2019-01-26T13:23:50.427Z,7.00
2019-01-26T13:26:20.534Z,5.40
2019-01-26T13:28:50.417Z,7.53
2019-01-26T13:31:20.349Z,6.43
2019-01-26T13:33:50.230Z,6.80
2019-01-26T13:36:20.166Z,5.93
2019-01-26T13:38:50.022Z,6.60
2019-01-26T13:41:19.873Z,6.73
2019-01-26T13:43:49.826Z,6.10
2019-01-26T13:46:19.707Z,6.50
2019-01-26T13:48:49.587Z,6.00
2019-01-26T13:51:19.523Z,8.17
2019-01-26T13:53:49.472Z,6.53
2019-01-26T13:56:19.341Z,7.97
2019-01-26T13:58:49.286Z,6.67
2019-01-26T14:01:19.132Z,7.10
2019-01-26T14:03:49.025Z,6.70
2019-01-26T14:06:18.942Z,6.00
2019-01-26T14:08:48.821Z,6.83
2019-01-26T14:11:18.813Z,6.83
2019-01-26T14:13:49.398Z,6.87
2019-01-26T14:16:19.225Z,8.33
2019-01-26T14:18:49.111Z,8.70
2019-01-26T14:21:18.974Z,8.47
2019-01-26T14:23:48.880Z,9.60
2019-01-26T14:26:18.812Z,10.60
2019-01-26T14:28:48.794Z,12.33
2019-01-26T14:31:18.755Z,11.30
2019-01-26T14:33:48.700Z,14.57
2019-01-26T14:36:18.552Z,12.30
2019-01-26T14:38:48.606Z,12.67
2019-01-26T14:41:18.567Z,13.77
2019-01-26T14:43:48.470Z,13.63
2019-01-26T14:46:18.472Z,13.63
2019-01-26T14:48:48.344Z,13.80
2019-01-26T14:51:18.332Z,13.97
2019-01-26T14:53:48.284Z,13.57
2019-01-26T14:56:18.305Z,16.30
2019-01-26T14:58:48.188Z,11.80
2019-01-26T15:01:18.035Z,14.53
2019-01-26T15:03:48.359Z,16.13
2019-01-26T15:06:18.219Z,14.13
2019-01-26T15:08:48.176Z,16.97
2019-01-26T15:11:18.039Z,13.17
2019-01-26T15:13:48.006Z,15.43
2019-01-26T15:16:17.967Z,16.47
2019-01-26T15:18:47.883Z,16.07
2019-01-26T15:21:17.916Z,20.97
2019-01-26T15:23:47.951Z,18.03
2019-01-26T15:26:17.965Z,16.30
2019-01-26T15:28:47.987Z,19.53
2019-01-26T15:31:18.070Z,19.33
2019-01-26T15:33:48.098Z,25.17
2019-01-26T15:36:17.984Z,25.17
2019-01-26T15:38:47.916Z,25.23
2019-01-26T15:41:17.803Z,27.03
2019-01-26T15:43:47.684Z,43.67
2019-01-26T15:46:17.576Z,31.70
2019-01-26T15:48:47.451Z,28.37
2019-01-26T15:51:18.125Z,28.23
2019-01-26T15:53:48.060Z,31.90
2019-01-26T15:56:17.947Z,30.37
2019-01-26T15:58:47.943Z,31.70
2019-01-26T16:01:17.907Z,32.80
2019-01-26T16:03:47.761Z,34.43
2019-01-26T16:06:17.712Z,33.80
2019-01-26T16:08:47.705Z,37.87
2019-01-26T16:11:17.623Z,27.80
2019-01-26T16:13:47.507Z,30.50
2019-01-26T16:16:17.537Z,31.03
2019-01-26T16:18:47.456Z,30.60
2019-01-26T16:21:17.492Z,27.20
2019-01-26T16:23:47.424Z,29.10
2019-01-26T16:26:17.462Z,36.00
2019-01-26T16:28:47.431Z,25.63
2019-01-26T16:31:17.394Z,25.90
2019-01-26T16:33:47.307Z,27.80
2019-01-26T16:36:17.316Z,26.33
2019-01-26T16:38:47.180Z,25.07
2019-01-26T16:41:17.122Z,24.10
2019-01-26T16:43:47.111Z,29.13
2019-01-26T16:46:17.113Z,25.67
2019-01-26T16:48:46.952Z,23.90
2019-01-26T16:51:16.845Z,20.83
2019-01-26T16:53:46.705Z,25.77
2019-01-26T16:56:16.627Z,22.60
2019-01-26T16:58:46.755Z,18.90
2019-01-26T17:01:16.749Z,18.87
2019-01-26T17:03:46.705Z,21.87
2019-01-26T17:06:16.682Z,26.20
2019-01-26T17:08:46.584Z,21.87
2019-01-26T17:11:16.447Z,21.60
2019-01-26T17:13:46.507Z,24.80
2019-01-26T17:16:16.402Z,21.07
2019-01-26T17:18:46.352Z,23.90
2019-01-26T17:21:16.560Z,15.53
2019-01-26T17:23:46.413Z,14.23
2019-01-26T17:26:16.289Z,15.17
2019-01-26T17:28:46.703Z,13.67
2019-01-26T17:31:16.738Z,23.17
2019-01-26T17:33:46.680Z,23.00
2019-01-26T17:36:16.533Z,20.00
2019-01-26T17:38:46.413Z,16.37
2019-01-26T17:41:16.354Z,25.33
2019-01-26T17:43:46.320Z,20.93
2019-01-26T17:46:16.182Z,22.40
2019-01-26T17:48:46.117Z,18.50
2019-01-26T17:51:18.381Z,23.57
2019-01-26T17:53:48.220Z,22.27
2019-01-26T17:56:18.224Z,14.63
2019-01-26T17:58:48.148Z,16.10
2019-01-26T18:01:18.100Z,18.10
2019-01-26T18:03:48.052Z,17.17
2019-01-26T18:06:17.938Z,16.23
2019-01-26T18:08:47.804Z,15.83
2019-01-26T18:11:17.874Z,21.40
2019-01-26T18:13:47.833Z,17.03
2019-01-26T18:16:17.771Z,15.63
2019-01-26T18:18:47.795Z,16.47
2019-01-26T18:21:17.669Z,17.03
2019-01-26T18:23:47.689Z,20.57
2019-01-26T18:26:17.800Z,17.13
2019-01-26T18:28:49.135Z,16.40
2019-01-26T18:31:18.912Z,18.73
2019-01-26T18:33:48.784Z,16.63
2019-01-26T18:36:18.648Z,20.73
2019-01-26T18:38:48.523Z,19.17
2019-01-26T18:41:18.493Z,18.67
2019-01-26T18:43:48.363Z,18.63
2019-01-26T18:46:18.273Z,19.00
2019-01-26T18:48:48.185Z,22.67
2019-01-26T18:51:18.121Z,22.73
2019-01-26T18:53:48.154Z,25.67
2019-01-26T18:56:18.082Z,23.47
2019-01-26T18:58:48.012Z,24.73
2019-01-26T19:01:18.129Z,28.77
2019-01-26T19:04:12.857Z,27.20
2019-01-26T19:06:42.834Z,30.07
2019-01-26T19:09:13.067Z,30.40
2019-01-26T19:11:42.942Z,32.40
2019-01-26T19:14:13.011Z,34.37
2019-01-26T19:20:18.078Z,31.93
2019-01-26T19:22:47.929Z,19.70
2019-01-26T19:25:18.205Z,34.50
2019-01-26T19:27:48.071Z,31.83
2019-01-26T19:30:19.735Z,35.57
2019-01-26T19:32:49.596Z,39.70
2019-01-26T19:35:19.663Z,34.13
2019-01-26T19:37:49.604Z,33.27
2019-01-26T19:40:20.623Z,35.00
2019-01-26T19:42:50.477Z,36.00
2019-01-26T19:45:20.779Z,32.93
2019-01-26T19:47:50.709Z,38.43
2019-01-26T19:50:21.598Z,35.00
2019-01-26T19:52:51.527Z,37.93
2019-01-26T19:55:21.824Z,38.90
2019-01-26T19:57:52.063Z,35.50
2019-01-26T20:00:22.084Z,39.60
2019-01-26T20:02:52.106Z,31.80
2019-01-26T20:05:22.045Z,28.83
2019-01-26T20:07:51.996Z,32.63
2019-01-26T20:10:21.849Z,23.70
2019-01-26T20:12:51.684Z,27.10
2019-01-26T20:15:21.671Z,26.60
2019-01-26T20:17:51.519Z,27.20
2019-01-26T20:20:24.188Z,30.77
2019-01-26T20:22:54.069Z,29.00
2019-01-26T20:25:24.024Z,29.40
2019-01-26T20:27:54.068Z,27.50
2019-01-26T20:30:26.583Z,28.97
2019-01-26T20:32:56.422Z,24.83
2019-01-26T20:35:26.485Z,22.37
2019-01-26T20:37:56.297Z,24.40
2019-01-26T20:40:26.328Z,29.67
2019-01-26T20:42:56.186Z,22.10
2019-01-26T20:45:27.425Z,26.60
2019-01-26T20:47:57.297Z,32.83
2019-01-26T20:50:27.173Z,25.73
2019-01-26T20:52:57.112Z,14.90
2019-01-26T20:55:26.989Z,26.53
2019-01-26T20:57:56.924Z,23.77
2019-01-26T21:00:28.844Z,24.73
2019-01-26T21:02:58.794Z,25.30
2019-01-26T21:05:28.677Z,24.90
2019-01-26T21:07:58.695Z,28.77
2019-01-26T21:10:29.855Z,22.13
2019-01-26T21:13:01.957Z,22.33
2019-01-26T21:15:31.829Z,23.97
2019-01-26T21:18:01.676Z,21.57
2019-01-26T21:20:31.565Z,23.73
2019-01-26T21:23:01.465Z,22.60
2019-01-26T21:25:31.459Z,24.53
2019-01-26T21:28:01.485Z,22.83
2019-01-26T21:30:31.491Z,21.07
2019-01-26T21:33:01.379Z,24.40
2019-01-26T21:35:31.235Z,19.27
2019-01-26T21:38:01.084Z,23.50
2019-01-26T21:40:32.101Z,22.13
2019-01-26T21:43:02.237Z,19.97
2019-01-26T21:45:32.130Z,24.60
2019-01-26T21:48:01.985Z,21.30
2019-01-26T21:50:31.954Z,24.60
2019-01-26T21:53:01.957Z,20.40
2019-01-26T21:55:31.904Z,23.07
2019-01-26T21:58:01.763Z,19.63
2019-01-26T22:00:33.466Z,19.70
2019-01-26T22:03:03.605Z,18.87
2019-01-26T22:05:33.473Z,22.30
2019-01-26T22:08:03.361Z,19.27
2019-01-26T22:10:33.371Z,21.93
2019-01-26T22:13:03.391Z,21.20
2019-01-26T22:15:33.358Z,21.00
2019-01-26T22:18:03.243Z,18.87
2019-01-26T22:20:33.164Z,17.47
2019-01-26T22:23:03.054Z,17.60
2019-01-26T22:25:33.112Z,18.53
2019-01-26T22:28:03.089Z,23.17
2019-01-26T22:30:34.444Z,25.10
2019-01-26T22:33:04.557Z,22.27
2019-01-26T22:35:34.480Z,21.10
2019-01-26T22:38:04.384Z,20.17
2019-01-26T22:40:36.003Z,18.63
2019-01-26T22:43:07.601Z,18.87
2019-01-26T22:45:37.519Z,20.70
2019-01-26T22:48:07.632Z,20.00
2019-01-26T22:50:37.635Z,17.83
2019-01-26T22:53:07.579Z,21.97
2019-01-26T22:55:37.579Z,22.53
2019-01-26T22:58:07.522Z,25.40
2019-01-26T23:01:12.844Z,19.30
2019-01-26T23:03:55.919Z,18.17
2019-01-26T23:06:50.283Z,18.93
2019-01-26T23:09:34.806Z,21.40
2019-01-26T23:12:40.503Z,18.80
2019-01-26T23:15:57.056Z,18.67
2019-01-26T23:19:01.969Z,16.50
2019-01-26T23:22:10.399Z,17.67
2019-01-26T23:25:42.742Z,15.73
2019-01-26T23:28:40.986Z,16.90
2019-01-26T23:31:19.524Z,16.10
2019-01-26T23:33:51.032Z,12.93
2019-01-26T23:36:20.883Z,20.63
2019-01-26T23:38:50.799Z,17.77
2019-01-26T23:41:20.739Z,15.57
2019-01-26T23:43:50.619Z,16.83
2019-01-26T23:46:20.494Z,17.80
2019-01-26T23:48:50.389Z,16.50
2019-01-26T23:51:20.418Z,17.43
2019-01-26T23:53:50.390Z,17.20
2019-01-26T23:56:20.268Z,14.57
2019-01-26T23:58:50.148Z,20.30
